Time;durP1;ratioP1;P1;durP2;ratioP2;P2;SDS_P1;SDS_P2;PMS_P1;PMS_P2;Temp;Humidity;BMP_temperature;BMP_pressure;BME280_temperature;BME280_humidity;BME280_pressure;Samples;Min_cycle;Max_cycle;Signal;HPM_P1;HPM_P2
2023/09/18 00:01:14;;;;;;;5.88;5.20;;;;;;;17.63;84.93;101004.59;4986933;28;20037;-80
2023/09/18 00:03:43;;;;;;;7.32;5.00;;;;;;;17.65;84.98;100996.97;5024048;28;20045;-79
2023/09/18 00:06:23;;;;;;;5.82;4.60;;;;;;;17.61;84.94;101002.22;5063030;22;20060;-80
2023/09/18 00:08:53;;;;;;;5.80;5.20;;;;;;;17.60;85.05;100994.38;5020260;28;20033;-82
2023/09/18 00:11:26;;;;;;;5.70;4.60;;;;;;;17.55;85.16;100994.53;5044046;28;20555;-81
2023/09/18 00:14:05;;;;;;;5.93;4.50;;;;;;;17.51;85.18;100997.03;5040130;28;20049;-79
2023/09/18 00:16:38;;;;;;;6.10;5.07;;;;;;;17.46;85.67;100984.44;5024368;28;20037;-80
2023/09/18 00:19:14;;;;;;;5.68;5.10;;;;;;;17.42;85.59;100988.88;5027239;28;20490;-81
2023/09/18 00:21:54;;;;;;;5.50;4.80;;;;;;;17.39;85.75;100992.19;5046632;28;20059;-81
2023/09/18 00:24:28;;;;;;;;;;;;;;;17.38;86.04;100985.19;5029024;28;20086;-81
2023/09/18 00:27:20;;;;;;;5.30;4.80;;;;;;;17.33;85.69;100985.31;5040388;28;19916;-80
2023/09/18 00:29:50;;;;;;;6.45;4.70;;;;;;;17.28;85.91;100976.53;5028972;28;20097;-79
2023/09/18 00:32:16;;;;;;;5.75;5.15;;;;;;;17.28;86.07;100976.53;5045067;28;20028;-81
2023/09/18 00:34:42;;;;;;;5.32;4.80;;;;;;;17.27;85.95;100964.06;5044261;28;20079;-79
2023/09/18 00:37:10;;;;;;;7.05;5.60;;;;;;;17.25;86.34;100955.47;5040253;28;20202;-78
2023/09/18 00:39:36;;;;;;;5.65;4.93;;;;;;;17.18;86.33;100951.28;5043740;28;20470;-77
2023/09/18 00:42:02;;;;;;;5.88;5.13;;;;;;;17.16;86.35;100953.53;5022366;28;20824;-78
2023/09/18 00:44:29;;;;;;;5.38;4.85;;;;;;;17.18;86.08;100950.50;5039702;28;20742;-77
2023/09/18 00:46:55;;;;;;;6.82;5.32;;;;;;;17.17;86.00;100952.41;5021104;28;20037;-78
2023/09/18 00:49:22;;;;;;;5.28;4.78;;;;;;;17.16;86.29;100948.09;5056719;28;20535;-80
2023/09/18 00:51:49;;;;;;;6.78;5.43;;;;;;;17.18;86.59;100945.88;5053832;28;20134;-78
2023/09/18 00:54:18;;;;;;;6.93;5.63;;;;;;;17.18;86.26;100945.88;5022570;28;20036;-78
2023/09/18 00:56:45;;;;;;;6.22;5.53;;;;;;;17.19;86.06;100942.06;5054254;28;20044;-76
2023/09/18 00:59:11;;;;;;;8.02;5.55;;;;;;;17.19;86.24;100944.78;5040931;28;20032;-75
2023/09/18 01:01:40;;;;;;;6.28;4.70;;;;;;;17.19;86.42;100931.25;5040755;28;20087;-77
2023/09/18 01:04:07;;;;;;;6.93;5.07;;;;;;;17.25;85.88;100928.41;5021992;28;20056;-77
2023/09/18 01:06:33;;;;;;;6.00;5.20;;;;;;;17.31;85.87;100932.59;5031856;28;20043;-79
2023/09/18 01:09:00;;;;;;;5.75;5.15;;;;;;;17.31;85.83;100929.88;5041614;28;20036;-76
2023/09/18 01:11:37;;;;;;;5.82;4.95;;;;;;;17.30;85.94;100926.38;5058167;28;20028;-76
2023/09/18 01:14:40;;;;;;;6.95;5.78;;;;;;;17.31;85.94;100921.75;5058114;28;20129;-78
2023/09/18 01:17:10;;;;;;;5.63;4.80;;;;;;;17.29;86.00;100919.38;5053030;28;20116;-78
2023/09/18 01:19:40;;;;;;;6.20;4.93;;;;;;;17.26;86.05;100914.56;5057333;28;20214;-78
2023/09/18 01:22:07;;;;;;;6.15;5.55;;;;;;;17.24;86.06;100916.78;5040488;28;20036;-78
2023/09/18 01:24:34;;;;;;;5.97;5.47;;;;;;;17.22;85.75;100912.81;5036214;28;20041;-77
2023/09/18 01:26:59;;;;;;;6.57;5.38;;;;;;;17.18;86.11;100896.38;5038751;28;21352;-79
2023/09/18 01:29:25;;;;;;;6.07;4.82;;;;;;;17.17;86.41;100889.38;5023943;28;20040;-77
2023/09/18 01:31:52;;;;;;;6.15;5.13;;;;;;;17.16;86.21;100880.47;5020517;28;20041;-78
2023/09/18 01:34:21;;;;;;;7.75;5.32;;;;;;;17.13;86.40;100882.97;5038955;28;20029;-78
2023/09/18 01:36:47;;;;;;;6.28;5.00;;;;;;;17.13;86.17;100877.56;5038352;28;20043;-78
2023/09/18 01:39:16;;;;;;;5.78;5.20;;;;;;;17.11;86.04;100877.88;5038898;28;20460;-77
2023/09/18 01:41:43;;;;;;;5.88;5.20;;;;;;;17.10;86.11;100873.56;5055973;28;20044;-79
2023/09/18 01:44:08;;;;;;;7.13;5.60;;;;;;;17.09;86.11;100865.78;5024676;28;20044;-76
2023/09/18 01:46:36;;;;;;;5.55;4.93;;;;;;;17.05;86.31;100860.16;5043297;28;20043;-82
2023/09/18 01:49:03;;;;;;;5.38;4.88;;;;;;;17.04;85.83;100863.19;5043851;28;20501;-77
2023/09/18 01:51:29;;;;;;;7.68;4.97;;;;;;;17.00;86.31;100863.03;5046288;28;20044;-78
2023/09/18 01:53:58;;;;;;;5.68;4.90;;;;;;;16.99;86.36;100857.91;5042873;28;20033;-78
2023/09/18 01:56:24;;;;;;;5.82;4.28;;;;;;;16.97;86.44;100857.41;5057138;28;20037;-78
2023/09/18 01:58:50;;;;;;;5.68;4.90;;;;;;;16.96;85.83;100848.50;5028698;28;20102;-80
2023/09/18 02:01:15;;;;;;;7.63;5.40;;;;;;;16.93;86.02;100846.41;5040310;28;20126;-78
2023/09/18 02:03:41;;;;;;;11.00;5.93;;;;;;;16.93;86.72;100846.41;5042301;28;20032;-78
2023/09/18 02:06:10;;;;;;;6.45;5.63;;;;;;;16.93;86.34;100841.00;5038243;28;20048;-77
2023/09/18 02:08:36;;;;;;;5.72;4.82;;;;;;;16.90;86.44;100826.19;5033802;28;20133;-79
2023/09/18 02:11:02;;;;;;;5.70;5.10;;;;;;;16.88;86.45;100822.22;5036844;28;20045;-80
2023/09/18 02:13:28;;;;;;;7.70;5.10;;;;;;;16.85;86.86;100825.53;5029445;28;20406;-78
2023/09/18 02:15:55;;;;;;;5.90;5.30;;;;;;;16.84;86.87;100815.81;5044528;28;20444;-78
2023/09/18 02:18:21;;;;;;;5.88;5.05;;;;;;;16.83;86.87;100809.59;5041189;28;20033;-77
2023/09/18 02:20:48;;;;;;;6.05;4.85;;;;;;;16.82;86.66;100809.91;5061842;28;20040;-78
2023/09/18 02:23:15;;;;;;;6.00;5.32;;;;;;;16.82;87.08;100799.09;5044055;28;20406;-78
2023/09/18 02:25:42;;;;;;;10.75;5.43;;;;;;;16.81;86.95;100800.22;5021206;28;20171;-78
2023/09/18 02:28:07;;;;;;;5.78;5.18;;;;;;;16.82;86.35;100797.19;5057499;28;20485;-78
2023/09/18 02:30:33;;;;;;;6.80;5.22;;;;;;;16.83;86.72;100798.00;5058751;28;20058;-76
2023/09/18 02:32:59;;;;;;;6.70;4.95;;;;;;;16.81;87.19;100811.03;5059880;28;20505;-78
2023/09/18 02:35:25;;;;;;;8.55;5.57;;;;;;;16.82;87.06;100801.81;5048524;28;20036;-76
2023/09/18 02:37:52;;;;;;;6.78;5.40;;;;;;;16.80;86.96;100794.00;5030720;28;20036;-78
2023/09/18 02:40:18;;;;;;;8.15;5.38;;;;;;;16.84;86.87;100788.75;5043751;28;20036;-78
2023/09/18 02:42:44;;;;;;;7.57;5.63;;;;;;;16.85;86.76;100790.34;5061427;28;20028;-78
2023/09/18 02:45:09;;;;;;;6.88;5.28;;;;;;;16.84;86.53;100788.75;5045432;28;20398;-77
2023/09/18 02:47:37;;;;;;;7.25;5.10;;;;;;;16.83;86.98;100792.59;5038119;28;20045;-78
2023/09/18 02:50:05;;;;;;;5.90;5.28;;;;;;;16.82;87.01;100785.59;5023768;28;20044;-77
2023/09/18 02:52:31;;;;;;;8.60;4.97;;;;;;;16.81;87.02;100773.16;5043376;28;20386;-78
2023/09/18 02:54:56;;;;;;;5.90;4.97;;;;;;;16.80;86.92;100775.06;5027641;28;20048;-79
2023/09/18 02:57:22;;;;;;;5.50;5.00;;;;;;;16.78;86.95;100777.28;5045716;28;20042;-78
2023/09/18 02:59:48;;;;;;;6.32;5.35;;;;;;;16.77;86.90;100774.88;5032818;28;20032;-77
2023/09/18 03:02:14;;;;;;;5.72;4.97;;;;;;;16.75;87.40;100779.81;5039986;28;20879;-79
2023/09/18 03:04:39;;;;;;;6.07;5.40;;;;;;;16.75;87.18;100779.81;5049132;28;20040;-77
2023/09/18 03:07:05;;;;;;;6.43;5.45;;;;;;;16.74;87.15;100781.72;5042173;28;20093;-76
2023/09/18 03:09:31;;;;;;;6.85;5.63;;;;;;;16.77;86.96;100785.72;5047717;28;20033;-77
2023/09/18 03:11:58;;;;;;;6.50;5.47;;;;;;;16.78;87.15;100784.59;5046109;28;20089;-75
2023/09/18 03:14:26;;;;;;;6.05;5.30;;;;;;;16.83;86.45;100773.66;5042895;28;20037;-77
2023/09/18 03:16:52;;;;;;;8.38;5.40;;;;;;;16.82;86.89;100763.94;5061478;28;20071;-76
2023/09/18 03:19:18;;;;;;;6.20;5.50;;;;;;;16.82;87.08;100763.94;5062791;28;20036;-75
2023/09/18 03:21:46;;;;;;;7.10;5.45;;;;;;;16.86;86.30;100759.50;5030869;28;20074;-78
2023/09/18 03:24:12;;;;;;;6.95;6.35;;;;;;;16.88;86.59;100751.88;5044778;28;20036;-78
2023/09/18 03:26:37;;;;;;;7.32;5.60;;;;;;;16.88;86.31;100751.88;5024738;28;20040;-78
2023/09/18 03:29:03;;;;;;;;;;;;;;;16.88;86.23;100741.88;5020774;28;20452;-76
2023/09/18 03:31:29;;;;;;;8.93;5.65;;;;;;;16.85;86.48;100737.06;5041646;28;19916;-75
2023/09/18 03:33:56;;;;;;;6.18;5.57;;;;;;;16.88;85.84;100730.25;5032620;28;20070;-75
2023/09/18 03:36:25;;;;;;;6.63;5.85;;;;;;;16.89;86.08;100731.84;5034653;28;20040;-76
2023/09/18 03:38:51;;;;;;;7.60;5.55;;;;;;;16.88;85.83;100724.84;5043914;28;20071;-79
2023/09/18 03:41:17;;;;;;;6.95;6.25;;;;;;;16.87;85.85;100718.63;5056771;28;20037;-76
2023/09/18 03:43:43;;;;;;;7.28;5.57;;;;;;;16.82;85.93;100704.44;5030643;28;20040;-75
2023/09/18 03:46:08;;;;;;;6.50;5.85;;;;;;;16.85;85.83;100710.00;5035781;28;20037;-76
2023/09/18 03:48:46;;;;;;;6.53;5.82;;;;;;;16.86;85.16;100700.00;5044497;28;20063;-77
2023/09/18 03:51:15;;;;;;;6.18;5.57;;;;;;;16.86;85.57;100700.00;5046291;28;20040;-76
2023/09/18 03:53:41;;;;;;;6.10;5.50;;;;;;;16.85;85.56;100701.09;5063224;28;20037;-77
2023/09/18 03:56:06;;;;;;;7.40;5.95;;;;;;;16.84;85.85;100702.22;5046229;28;20436;-77
2023/09/18 03:58:32;;;;;;;6.45;5.85;;;;;;;16.86;85.65;100686.47;5044713;28;20044;-78
2023/09/18 04:00:57;;;;;;;6.60;5.97;;;;;;;16.87;85.49;100688.88;5062776;28;20028;-77
2023/09/18 04:03:23;;;;;;;6.35;5.50;;;;;;;16.85;85.80;100682.16;5062127;28;20720;-76
2023/09/18 04:05:48;;;;;;;6.95;5.68;;;;;;;16.83;85.78;100679.78;5026322;28;20125;-76
2023/09/18 04:08:14;;;;;;;7.32;5.85;;;;;;;16.82;86.13;100677.41;5044961;28;20036;-77
2023/09/18 04:10:40;;;;;;;5.55;5.05;;;;;;;16.77;86.38;100674.81;5061284;28;20037;-75
2023/09/18 04:13:06;;;;;;;6.18;5.32;;;;;;;16.77;86.21;100674.81;5045911;28;20033;-76
2023/09/18 04:15:31;;;;;;;6.50;5.72;;;;;;;16.75;86.56;100667.03;5024191;28;20029;-78
2023/09/18 04:17:57;;;;;;;7.15;5.55;;;;;;;16.74;86.18;100659.25;5044146;28;20034;-78
2023/09/18 04:20:25;;;;;;;7.95;6.05;;;;;;;16.73;86.53;100655.75;5061270;28;20116;-77
2023/09/18 04:23:17;;;;;;;7.68;5.63;;;;;;;16.73;85.93;100658.44;5043169;28;20117;-76
2023/09/18 04:25:43;;;;;;;7.38;5.43;;;;;;;16.73;86.40;100658.44;5044429;28;20044;-77
2023/09/18 04:28:08;;;;;;;6.18;5.57;;;;;;;16.70;86.50;100650.16;5026066;28;20158;-77
2023/09/18 04:30:34;;;;;;;6.18;5.45;;;;;;;16.67;86.36;100648.06;5025903;28;20063;-77
2023/09/18 04:33:00;;;;;;;8.27;5.85;;;;;;;16.67;86.52;100639.94;5064201;28;20028;-77
2023/09/18 04:35:26;;;;;;;7.10;5.75;;;;;;;16.65;86.31;100651.03;5043826;28;20048;-76
2023/09/18 04:37:55;;;;;;;6.70;5.75;;;;;;;16.65;86.62;100641.03;5025384;28;20250;-76
2023/09/18 04:40:21;;;;;;;7.93;6.43;;;;;;;16.65;86.35;100641.03;5040826;28;20158;-76
2023/09/18 04:42:47;;;;;;;6.78;5.38;;;;;;;16.64;86.67;100627.81;5061949;28;20392;-77
2023/09/18 04:45:13;;;;;;;6.68;5.97;;;;;;;16.60;86.74;100622.25;5059090;28;20051;-76
2023/09/18 04:47:39;;;;;;;8.70;6.63;;;;;;;16.61;86.72;100607.63;5042044;28;20029;-77
2023/09/18 04:50:06;;;;;;;9.50;6.25;;;;;;;16.59;86.88;100609.81;5043941;28;20028;-78
2023/09/18 04:52:33;;;;;;;6.28;5.68;;;;;;;16.59;86.63;100607.13;5061403;28;20135;-77
2023/09/18 04:54:59;;;;;;;7.68;6.85;;;;;;;16.60;86.59;100602.53;5024865;28;20127;-77
2023/09/18 04:57:25;;;;;;;6.80;6.05;;;;;;;16.62;86.56;100603.81;5045647;28;20119;-77
2023/09/18 04:59:51;;;;;;;6.68;5.97;;;;;;;16.60;86.84;100594.44;5046046;28;20032;-77
2023/09/18 05:02:16;;;;;;;;;;;;;;;16.61;86.77;100585.19;5078906;28;20033;-78
2023/09/18 05:04:42;;;;;;;6.80;5.90;;;;;;;16.60;86.61;100583.63;5043806;28;19931;-76
2023/09/18 05:07:08;;;;;;;;;;;;;;;16.61;86.98;100579.78;5058755;28;20039;-76
2023/09/18 05:09:34;;;;;;;7.47;6.18;;;;;;;16.56;87.41;100572.63;5058136;28;20015;-76
2023/09/18 05:12:00;;;;;;;6.80;5.97;;;;;;;16.54;87.61;100564.03;5059522;28;20029;-76
2023/09/18 05:14:26;;;;;;;8.85;6.18;;;;;;;16.55;87.05;100554.81;5058205;28;20032;-77
2023/09/18 05:16:51;;;;;;;7.90;5.97;;;;;;;16.54;87.17;100550.50;5056675;28;20036;-77
2023/09/18 05:19:17;;;;;;;7.20;6.50;;;;;;;16.58;86.99;100542.56;5041521;28;20067;-77
2023/09/18 05:21:43;;;;;;;7.18;5.80;;;;;;;16.60;87.07;100540.34;5045411;28;20032;-76
2023/09/18 05:24:09;;;;;;;8.05;6.25;;;;;;;16.61;86.93;100528.44;5058122;28;20379;-75
2023/09/18 05:26:35;;;;;;;9.00;6.55;;;;;;;16.63;86.54;100529.69;5060929;28;20496;-76
2023/09/18 05:29:00;;;;;;;6.53;5.80;;;;;;;16.67;86.43;100526.38;5049441;28;20028;-76
2023/09/18 05:31:26;;;;;;;10.23;6.13;;;;;;;16.68;86.43;100526.06;5038345;28;20035;-75
2023/09/18 05:33:52;;;;;;;7.35;5.80;;;;;;;16.71;86.34;100530.06;5041257;28;20406;-76
2023/09/18 05:36:17;;;;;;;6.97;6.25;;;;;;;16.75;85.99;100539.13;5041232;28;20051;-76
2023/09/18 05:38:43;;;;;;;8.55;6.10;;;;;;;16.75;86.36;100523.72;5055269;28;20041;-77
2023/09/18 05:41:09;;;;;;;7.10;5.68;;;;;;;16.77;85.94;100528.78;5059751;28;20028;-76
2023/09/18 05:43:35;;;;;;;9.30;6.03;;;;;;;16.81;85.73;100527.84;5042355;28;20036;-77
2023/09/18 05:46:01;;;;;;;7.60;6.07;;;;;;;16.82;85.63;100526.75;5041806;28;20036;-78
2023/09/18 05:48:27;;;;;;;8.52;6.18;;;;;;;16.85;86.13;100519.88;5024475;28;20500;-76
2023/09/18 05:50:54;;;;;;;8.15;6.30;;;;;;;16.89;85.46;100518.16;5060059;28;20036;-78
2023/09/18 05:53:20;;;;;;;7.78;6.30;;;;;;;16.93;85.11;100510.97;5056334;28;20028;-76
2023/09/18 05:55:47;;;;;;;6.47;5.85;;;;;;;16.97;84.94;100511.16;5062090;28;20078;-78
2023/09/18 05:58:13;;;;;;;6.63;6.00;;;;;;;17.00;85.25;100511.34;5023917;28;20024;-76
2023/09/18 06:00:39;;;;;;;6.82;6.13;;;;;;;17.04;84.79;100501.44;5060740;28;20032;-78
2023/09/18 06:03:06;;;;;;;7.00;6.03;;;;;;;17.08;84.80;100497.00;5021669;28;20768;-77
2023/09/18 06:05:33;;;;;;;6.07;5.47;;;;;;;17.14;84.69;100490.31;5034325;28;20561;-78
2023/09/18 06:08:00;;;;;;;8.85;6.13;;;;;;;17.18;84.73;100491.25;5033771;28;20127;-78
2023/09/18 06:10:25;;;;;;;7.15;5.95;;;;;;;17.27;84.31;100495.84;5054368;28;20035;-79
2023/09/18 06:12:51;;;;;;;6.40;5.78;;;;;;;17.32;84.04;100498.41;5041210;28;20033;-76
2023/09/18 06:15:18;;;;;;;9.27;6.05;;;;;;;17.39;83.89;100490.59;5056452;28;20107;-76
2023/09/18 06:17:44;;;;;;;6.32;5.50;;;;;;;17.49;83.48;100494.88;5041449;28;20036;-76
2023/09/18 06:20:12;;;;;;;8.23;5.63;;;;;;;17.56;83.15;100490.56;5057527;28;20095;-76
2023/09/18 06:22:38;;;;;;;8.00;6.18;;;;;;;17.64;83.21;100489.75;5056662;28;20044;-76
2023/09/18 06:25:09;;;;;;;6.72;5.90;;;;;;;17.69;82.98;100481.47;5054531;28;20037;-76
2023/09/18 06:27:36;;;;;;;8.63;5.82;;;;;;;17.70;83.23;100485.75;5055868;28;20067;-77
2023/09/18 06:30:04;;;;;;;7.82;6.47;;;;;;;17.71;83.52;100479.25;5058772;28;20029;-76
2023/09/18 06:32:30;;;;;;;6.88;6.18;;;;;;;17.73;83.30;100468.06;5040294;28;20041;-77
2023/09/18 06:34:57;;;;;;;7.13;6.43;;;;;;;17.75;83.24;100465.88;5040876;28;20043;-76
2023/09/18 06:37:23;;;;;;;7.63;6.43;;;;;;;17.78;83.48;100464.41;5027550;28;20044;-76
2023/09/18 06:39:49;;;;;;;8.52;6.72;;;;;;;17.79;83.91;100466.78;5039294;28;20498;-76
2023/09/18 06:42:15;;;;;;;8.02;6.63;;;;;;;17.77;83.25;100468.25;5022515;28;20040;-77
2023/09/18 06:44:41;;;;;;;;;;;;;;;17.80;83.22;100462.16;5039572;28;20090;-76
2023/09/18 06:47:07;;;;;;;8.38;6.53;;;;;;;17.81;83.46;100463.75;5042368;28;19919;-77
2023/09/18 06:49:32;;;;;;;;;;;;;;;17.81;83.33;100451.00;5040420;28;20534;-77
2023/09/18 06:51:58;;;;;;;7.55;6.18;;;;;;;17.80;83.13;100443.19;5022804;28;20377;-77
2023/09/18 06:54:24;;;;;;;9.13;6.30;;;;;;;17.82;83.34;100432.84;5039589;28;20090;-81
2023/09/18 06:56:50;;;;;;;6.97;6.03;;;;;;;17.84;83.66;100428.69;5037609;28;20068;-77
2023/09/18 06:59:15;;;;;;;8.57;6.85;;;;;;;17.89;83.24;100427.72;5050341;28;20118;-77
2023/09/18 07:01:42;;;;;;;7.78;5.82;;;;;;;17.93;83.15;100434.84;5029189;28;20119;-75
2023/09/18 07:04:08;;;;;;;7.35;6.18;;;;;;;17.97;83.11;100424.19;5050224;28;20029;-76
2023/09/18 07:06:34;;;;;;;7.85;5.75;;;;;;;18.03;82.99;100422.88;5058579;28;20514;-75
2023/09/18 07:09:04;;;;;;;7.63;6.38;;;;;;;18.08;82.60;100406.41;5039111;28;20020;-77
2023/09/18 07:11:29;;;;;;;7.30;6.60;;;;;;;18.12;82.56;100409.25;5036555;28;20043;-77
2023/09/18 07:13:55;;;;;;;8.73;6.38;;;;;;;18.14;82.74;100394.25;5021698;28;20045;-77
2023/09/18 07:16:21;;;;;;;6.90;6.20;;;;;;;18.20;82.62;100398.34;5057447;28;20064;-76
2023/09/18 07:18:46;;;;;;;6.68;5.95;;;;;;;18.24;81.88;100385.75;5061860;28;20035;-76
2023/09/18 07:21:12;;;;;;;7.93;6.07;;;;;;;18.30;82.13;100380.13;5056808;28;20037;-77
2023/09/18 07:23:40;;;;;;;7.15;5.88;;;;;;;18.36;81.86;100376.13;5060502;28;20025;-77
2023/09/18 07:26:06;;;;;;;8.98;6.22;;;;;;;18.50;82.27;100371.22;5055195;28;20405;-76
2023/09/18 07:28:31;;;;;;;6.85;6.13;;;;;;;18.57;82.03;100366.06;5060169;28;20048;-77
2023/09/18 07:31:03;;;;;;;8.48;6.00;;;;;;;18.65;81.43;100373.31;5022652;28;20044;-75
2023/09/18 07:33:28;;;;;;;7.80;6.28;;;;;;;18.73;81.75;100390.66;5057374;28;20040;-76
2023/09/18 07:35:54;;;;;;;8.18;6.85;;;;;;;18.79;81.22;100387.41;5061334;28;20409;-76
2023/09/18 07:38:20;;;;;;;7.13;6.32;;;;;;;18.86;80.95;100389.59;5043928;28;20032;-75
2023/09/18 07:40:47;;;;;;;8.13;5.90;;;;;;;18.90;80.92;100384.28;5054933;28;20037;-78
2023/09/18 07:43:13;;;;;;;6.38;5.78;;;;;;;18.94;81.25;100374.34;5045422;28;20460;-74
2023/09/18 07:45:39;;;;;;;8.32;6.07;;;;;;;19.02;81.41;100368.03;5044057;28;20036;-77
2023/09/18 07:48:10;;;;;;;7.65;5.93;;;;;;;19.07;80.55;100362.41;5064793;28;20054;-77
2023/09/18 07:50:36;;;;;;;7.63;5.85;;;;;;;19.13;80.85;100354.84;5039899;28;20440;-76
2023/09/18 07:53:03;;;;;;;9.38;6.90;;;;;;;19.16;80.34;100354.94;5056464;28;20089;-75
2023/09/18 07:55:29;;;;;;;7.60;6.30;;;;;;;19.16;80.34;100349.53;5019661;28;20051;-76
2023/09/18 07:57:55;;;;;;;8.57;5.90;;;;;;;19.20;80.96;100350.44;5054980;28;20123;-75
2023/09/18 08:00:22;;;;;;;8.02;6.05;;;;;;;19.23;81.45;100341.63;5025091;28;20038;-75
2023/09/18 08:02:49;;;;;;;6.38;5.30;;;;;;;19.25;81.29;100347.53;5044167;28;20060;-76
2023/09/18 08:05:16;;;;;;;7.05;6.10;;;;;;;19.25;81.78;100342.09;5058335;28;20028;-76
2023/09/18 08:07:42;;;;;;;8.40;6.05;;;;;;;19.26;80.47;100340.16;5061973;28;20082;-76
2023/09/18 08:10:08;;;;;;;6.82;6.05;;;;;;;19.31;81.29;100337.25;5061054;28;20056;-75
2023/09/18 08:12:34;;;;;;;8.95;5.85;;;;;;;19.34;80.83;100337.34;5041921;28;20087;-76
2023/09/18 08:15:00;;;;;;;7.30;5.55;;;;;;;19.36;81.20;100339.72;5028069;28;20394;-77
2023/09/18 08:17:26;;;;;;;7.28;6.57;;;;;;;19.38;80.76;100340.19;5045479;28;20517;-74
2023/09/18 08:19:53;;;;;;;6.43;5.82;;;;;;;19.44;80.56;100346.97;5059746;28;20028;-77
2023/09/18 08:22:20;;;;;;;6.30;5.70;;;;;;;19.48;81.31;100385.09;5059665;28;20044;-75
2023/09/18 08:24:50;;;;;;;7.30;5.40;;;;;;;19.50;82.30;100396.41;5058873;28;20164;-75
2023/09/18 08:27:19;;;;;;;6.05;5.45;;;;;;;19.52;82.58;100388.75;5056551;28;20453;-77
2023/09/18 08:29:47;;;;;;;9.43;5.35;;;;;;;19.53;82.71;100371.31;5059756;28;20482;-75
2023/09/18 08:32:13;;;;;;;7.68;5.70;;;;;;;19.54;82.14;100376.41;5060046;28;20036;-76
2023/09/18 08:34:40;;;;;;;6.80;5.40;;;;;;;19.57;82.38;100369.47;5041580;28;20460;-76
2023/09/18 08:37:05;;;;;;;6.95;5.65;;;;;;;19.58;82.45;100362.97;5060226;28;20036;-76
2023/09/18 08:39:32;;;;;;;7.75;5.95;;;;;;;19.57;81.42;100369.47;5041746;28;20416;-75
2023/09/18 08:42:03;;;;;;;7.90;5.53;;;;;;;19.60;81.29;100380.50;5020050;28;20131;-76
2023/09/18 08:44:30;;;;;;;6.53;5.25;;;;;;;19.63;80.94;100373.59;5060706;28;20056;-77
2023/09/18 08:46:56;;;;;;;6.20;5.05;;;;;;;19.66;81.24;100366.72;5054565;28;20028;-76
2023/09/18 08:49:26;;;;;;;6.90;5.93;;;;;;;19.67;81.49;100369.06;5053986;28;20980;-76
2023/09/18 08:51:54;;;;;;;7.45;5.28;;;;;;;19.68;81.24;100370.66;5060011;28;20032;-75
2023/09/18 08:54:21;;;;;;;6.80;5.45;;;;;;;19.68;80.81;100370.66;5054309;28;20032;-76
2023/09/18 08:56:47;;;;;;;6.07;4.78;;;;;;;19.69;80.95;100380.38;5044462;28;20040;-76
2023/09/18 08:59:13;;;;;;;5.70;5.05;;;;;;;19.73;80.55;100364.22;5040001;28;20047;-77
2023/09/18 09:01:40;;;;;;;6.07;5.47;;;;;;;19.76;81.13;100375.19;5059406;28;20035;-76
2023/09/18 09:04:05;;;;;;;5.35;4.78;;;;;;;19.76;80.73;100364.31;5039142;28;20040;-76
2023/09/18 09:06:31;;;;;;;6.93;5.40;;;;;;;19.76;80.96;100372.47;5057721;28;20036;-74
2023/09/18 09:08:57;;;;;;;5.80;4.70;;;;;;;19.78;80.64;100366.69;5058110;28;20573;-75
2023/09/18 09:11:22;;;;;;;6.65;4.57;;;;;;;19.80;80.39;100362.50;5046059;28;20036;-76
2023/09/18 09:14:11;;;;;;;5.78;4.57;;;;;;;19.88;80.90;100358.09;5058364;28;20413;-76
2023/09/18 09:16:39;;;;;;;10.02;4.85;;;;;;;19.92;82.08;100352.78;5040080;28;20090;-76
2023/09/18 09:19:05;;;;;;;6.90;4.70;;;;;;;19.96;80.87;100359.09;5053604;28;20040;-77
2023/09/18 09:21:41;;;;;;;5.30;4.80;;;;;;;20.03;81.67;100351.16;5050880;28;20044;-77
2023/09/18 09:24:07;;;;;;;5.95;5.03;;;;;;;20.09;81.77;100349.78;5037999;28;20036;-77
2023/09/18 09:26:32;;;;;;;5.43;4.65;;;;;;;20.17;81.17;100351.56;5057960;28;20048;-77
2023/09/18 09:29:15;;;;;;;5.82;4.80;;;;;;;20.27;80.95;100356.56;5057118;28;20032;-75
2023/09/18 09:31:41;;;;;;;7.47;4.93;;;;;;;20.38;81.41;100340.53;5059519;28;20105;-81
2023/09/18 09:34:09;;;;;;;6.00;4.75;;;;;;;20.45;80.27;100333.38;5045372;28;20040;-77
2023/09/18 09:36:34;;;;;;;5.30;4.53;;;;;;;20.51;80.09;100331.22;5058891;28;20059;-76
2023/09/18 09:39:02;;;;;;;5.75;4.60;;;;;;;20.56;80.74;100327.47;5024599;28;20128;-77
2023/09/18 09:41:31;;;;;;;5.63;4.65;;;;;;;20.60;80.61;100326.44;5053579;28;20044;-77
2023/09/18 09:43:57;;;;;;;5.13;4.55;;;;;;;20.67;80.05;100320.41;5024709;28;20060;-76
2023/09/18 09:46:28;;;;;;;5.57;4.55;;;;;;;20.74;80.30;100317.88;5052565;28;20029;-76
2023/09/18 09:49:01;;;;;;;6.13;4.60;;;;;;;20.87;80.59;100330.28;5035052;28;20040;-76
2023/09/18 09:51:29;;;;;;;5.50;4.10;;;;;;;20.93;80.12;100326.16;5039370;28;20032;-77
2023/09/18 09:53:54;;;;;;;6.72;4.57;;;;;;;20.97;79.60;100327.03;5059697;28;20433;-78
2023/09/18 09:56:21;;;;;;;5.88;4.30;;;;;;;20.99;79.51;100313.06;5025239;28;20884;-76
2023/09/18 09:59:07;;;;;;;5.72;4.15;;;;;;;21.03;79.17;100318.59;5055690;28;20551;-76
2023/09/18 10:01:34;;;;;;;6.28;4.70;;;;;;;21.08;78.81;100312.91;5048624;28;20036;-78
2023/09/18 10:04:10;;;;;;;7.05;4.47;;;;;;;21.16;79.33;100303.78;5054886;28;20416;-77
2023/09/18 10:06:37;;;;;;;6.50;4.35;;;;;;;21.21;78.71;100295.34;5037663;28;20047;-75
2023/09/18 10:09:07;;;;;;;6.07;4.55;;;;;;;21.27;79.33;100307.56;5037941;28;20136;-77
2023/09/18 10:11:41;;;;;;;6.55;4.60;;;;;;;21.24;78.01;100314.47;5053742;28;20070;-75
2023/09/18 10:14:19;;;;;;;4.95;4.25;;;;;;;21.23;79.10;100315.63;5052329;28;20512;-76
2023/09/18 10:16:50;;;;;;;6.15;4.45;;;;;;;21.24;79.47;100319.13;5036040;28;20036;-76
2023/09/18 10:19:57;;;;;;;5.63;4.40;;;;;;;21.23;80.08;100312.91;5019147;28;20033;-76
2023/09/18 10:22:37;;;;;;;6.50;4.43;;;;;;;21.25;80.10;100331.59;5056366;28;20056;-77
2023/09/18 10:25:23;;;;;;;5.05;4.22;;;;;;;21.26;80.35;100327.75;5040624;28;20040;-77
2023/09/18 10:27:53;;;;;;;5.93;4.25;;;;;;;21.31;80.34;100324.78;5055430;28;20032;-78
2023/09/18 10:30:22;;;;;;;7.40;4.63;;;;;;;21.37;78.89;100330.78;5037512;28;20028;-77
2023/09/18 10:32:50;;;;;;;6.15;4.70;;;;;;;21.46;79.60;100320.47;5060725;28;20044;-77
2023/09/18 10:35:17;;;;;;;5.68;4.53;;;;;;;21.50;78.56;100324.88;5054578;28;20102;-75
2023/09/18 10:37:45;;;;;;;5.43;4.57;;;;;;;21.56;79.46;100324.63;5024389;28;20040;-78
2023/09/18 10:40:12;;;;;;;7.28;4.78;;;;;;;21.58;79.78;100330.50;5050769;28;20040;-77
2023/09/18 10:42:39;;;;;;;5.72;3.80;;;;;;;21.56;78.79;100319.94;5042016;28;20037;-77
2023/09/18 10:45:10;;;;;;;7.07;4.30;;;;;;;21.61;78.49;100313.41;5039469;28;20029;-76
2023/09/18 10:47:40;;;;;;;4.75;4.18;;;;;;;21.61;78.75;100307.97;5041440;28;20036;-75
2023/09/18 10:50:07;;;;;;;6.22;4.45;;;;;;;21.66;78.56;100324.06;5037660;28;20174;-77
2023/09/18 10:52:43;;;;;;;8.45;4.60;;;;;;;21.71;78.79;100326.50;5043023;28;20044;-77
2023/09/18 10:55:13;;;;;;;5.88;4.40;;;;;;;21.81;79.07;100334.13;5047647;28;20037;-76
2023/09/18 10:57:57;;;;;;;8.18;4.32;;;;;;;21.86;79.83;100347.50;5059509;28;20444;-78
2023/09/18 11:00:29;;;;;;;6.40;4.22;;;;;;;21.89;79.62;100349.53;5054326;28;20040;-76
2023/09/18 11:03:13;;;;;;;6.70;4.30;;;;;;;21.93;78.48;100350.38;5044742;28;20132;-77
2023/09/18 11:05:38;;;;;;;;;;;;;;;22.07;78.32;100333.53;5061140;28;20123;-77
2023/09/18 11:08:30;;;;;;;6.53;4.07;;;;;;;22.20;76.61;100332.28;5028747;28;20046;-77
2023/09/18 11:10:59;;;;;;;7.05;3.83;;;;;;;22.33;77.93;100335.69;5063582;28;20119;-76
2023/09/18 11:13:35;;;;;;;6.28;4.20;;;;;;;22.37;76.83;100330.31;5061382;28;20573;-76
2023/09/18 11:16:03;;;;;;;4.72;3.78;;;;;;;22.39;78.10;100322.53;5057482;28;20127;-78
2023/09/18 11:18:34;;;;;;;6.28;4.15;;;;;;;22.38;76.36;100316.31;5042266;28;20044;-75
2023/09/18 11:21:11;;;;;;;6.28;4.22;;;;;;;22.57;79.34;100326.44;5044600;28;20021;-79
2023/09/18 11:23:40;;;;;;;6.03;3.83;;;;;;;22.61;76.37;100330.00;5027676;28;20044;-78
2023/09/18 11:26:11;;;;;;;5.47;4.18;;;;;;;22.60;76.55;100333.88;5036793;28;20497;-79
2023/09/18 11:28:37;;;;;;;5.72;4.70;;;;;;;22.55;75.80;100328.69;5055407;28;20123;-77
2023/09/18 11:31:04;;;;;;;9.02;4.00;;;;;;;22.44;75.09;100336.69;5062693;28;20505;-79